Time;durP1;ratioP1;P1;durP2;ratioP2;P2;SDS_P1;SDS_P2;PMS_P1;PMS_P2;Temp;Humidity;BMP_temperature;BMP_pressure;BME280_temperature;BME280_humidity;BME280_pressure;Samples;Min_cycle;Max_cycle;Signal;HPM_P1;HPM_P2
2023/08/18 00:01:38;;;;;;;;;;;;;;;29.21;31.83;100640.31;5058229;28;1075;-43
2023/08/18 00:04:04;;;;;;;;;;;;;;;29.20;31.97;100647.59;5058481;28;1103;-42
2023/08/18 00:06:29;;;;;;;;;;;;;;;29.21;31.77;100651.16;5058195;28;1965;-42
2023/08/18 00:08:55;;;;;;;;;;;;;;;29.07;31.97;100651.06;5058290;28;1119;-42
2023/08/18 00:11:20;;;;;;;;;;;;;;;29.06;32.03;100641.25;5058095;28;1159;-43
2023/08/18 00:13:46;;;;;;;;;;;;;;;29.14;32.04;100645.69;5057895;28;1063;-42
2023/08/18 00:16:12;;;;;;;;;;;;;;;29.29;31.64;100655.56;5057995;28;1222;-42
2023/08/18 00:18:37;;;;;;;;;;;;;;;29.23;31.90;100648.25;5058302;28;1156;-42
2023/08/18 00:21:03;;;;;;;;;;;;;;;29.23;31.84;100650.97;5057616;28;1061;-42
2023/08/18 00:23:28;;;;;;;;;;;;;;;29.27;31.78;100649.50;5058124;28;1476;-42
2023/08/18 00:25:53;;;;;;;;;;;;;;;29.20;32.39;100650.31;5057749;28;1905;-43
2023/08/18 00:28:19;;;;;;;;;;;;;;;29.29;31.86;100652.84;5058054;28;1104;-43
2023/08/18 00:30:45;;;;;;;;;;;;;;;29.29;31.63;100652.84;5057617;28;1127;-43
2023/08/18 00:33:10;;;;;;;;;;;;;;;29.25;31.83;100657.84;5057333;28;1135;-42
2023/08/18 00:35:36;;;;;;;;;;;;;;;29.26;31.72;100640.53;5057811;28;1005;-42
2023/08/18 00:38:02;;;;;;;;;;;;;;;29.23;31.73;100645.53;5040168;28;1328;-42
2023/08/18 00:40:29;;;;;;;;;;;;;;;29.21;31.78;100638.44;5040031;28;1167;-42
2023/08/18 00:42:54;;;;;;;;;;;;;;;29.28;31.87;100643.06;5057500;28;1087;-42
2023/08/18 00:45:20;;;;;;;;;;;;;;;29.27;32.00;100641.38;5057421;28;1975;-43
2023/08/18 00:47:46;;;;;;;;;;;;;;;29.17;31.92;100645.28;5040013;28;1048;-42
2023/08/18 00:50:12;;;;;;;;;;;;;;;29.26;31.96;100640.53;5039254;28;1079;-42
2023/08/18 00:52:38;;;;;;;;;;;;;;;29.17;31.91;100647.16;5057461;28;992;-42
2023/08/18 00:55:04;;;;;;;;;;;;;;;29.19;32.10;100640.53;5057656;28;1091;-42
2023/08/18 00:57:29;;;;;;;;;;;;;;;29.06;32.08;100643.97;5038739;28;1095;-42
2023/08/18 00:59:56;;;;;;;;;;;;;;;29.15;32.09;100641.94;5057461;28;1183;-42
2023/08/18 01:02:22;;;;;;;;;;;;;;;29.25;31.84;100641.56;5039263;28;1151;-43
2023/08/18 01:04:47;;;;;;;;;;;;;;;29.26;31.90;100640.53;5038833;28;1961;-42
2023/08/18 01:07:13;;;;;;;;;;;;;;;29.28;31.99;100646.59;5057593;28;1203;-43
2023/08/18 01:09:38;;;;;;;;;;;;;;;29.23;31.82;100642.81;5056704;28;1063;-43
2023/08/18 01:12:07;;;;;;;;;;;;;;;29.07;31.91;100639.41;5039382;28;1049;-42
2023/08/18 01:14:41;;;;;;;;;;;;;;;29.24;31.79;100636.38;5057208;28;1060;-43
2023/08/18 01:17:11;;;;;;;;;;;;;;;29.28;31.81;100643.88;5056935;28;1114;-42
2023/08/18 01:19:38;;;;;;;;;;;;;;;29.14;31.92;100642.16;5022589;28;1372;-42
2023/08/18 01:22:06;;;;;;;;;;;;;;;29.16;32.15;100640.09;5039255;28;875;-42
2023/08/18 01:24:31;;;;;;;;;;;;;;;29.20;32.26;100638.63;5056413;28;1906;-42
2023/08/18 01:26:57;;;;;;;;;;;;;;;29.23;32.04;100629.28;5056530;28;1137;-42
2023/08/18 01:29:23;;;;;;;;;;;;;;;29.27;31.71;100635.97;5056913;28;1194;-42
2023/08/18 01:31:51;;;;;;;;;;;;;;;29.14;32.38;100639.44;5056833;28;1098;-42
2023/08/18 01:34:16;;;;;;;;;;;;;;;29.11;32.04;100637.13;5038476;28;1005;-42
2023/08/18 01:36:42;;;;;;;;;;;;;;;29.04;32.17;100623.56;5056510;28;1043;-42
2023/08/18 01:39:08;;;;;;;;;;;;;;;29.09;32.11;100646.28;5039000;28;1284;-43
2023/08/18 01:41:33;;;;;;;;;;;;;;;29.26;31.98;100642.44;5038523;28;1299;-42
2023/08/18 01:43:59;;;;;;;;;;;;;;;29.18;32.04;100643.41;5038445;28;998;-42
2023/08/18 01:46:24;;;;;;;;;;;;;;;29.10;32.22;100639.00;5056058;28;1906;-42
2023/08/18 01:48:50;;;;;;;;;;;;;;;29.16;32.10;100638.19;5056364;28;1064;-42
2023/08/18 01:51:16;;;;;;;;;;;;;;;29.06;32.17;100630.44;5038503;28;1040;-43
2023/08/18 01:53:41;;;;;;;;;;;;;;;29.05;32.03;100633.34;5043197;28;985;-42
2023/08/18 01:56:06;;;;;;;;;;;;;;;29.02;32.07;100637.28;5056367;28;1102;-42
2023/08/18 01:58:32;;;;;;;;;;;;;;;29.18;31.91;100630.72;5037987;28;1127;-43
2023/08/18 02:00:58;;;;;;;;;;;;;;;29.17;32.26;100636.31;5038464;28;2041;-42
2023/08/18 02:03:23;;;;;;;;;;;;;;;29.08;32.10;100628.38;5038150;28;1294;-42
2023/08/18 02:05:53;;;;;;;;;;;;;;;29.15;32.00;100630.25;5037932;28;1971;-42
2023/08/18 02:08:19;;;;;;;;;;;;;;;29.12;31.94;100627.97;5056318;28;1140;-42
2023/08/18 02:10:44;;;;;;;;;;;;;;;29.02;32.09;100626.47;5054917;28;1009;-42
2023/08/18 02:13:10;;;;;;;;;;;;;;;29.09;32.04;100627.31;5038109;28;1222;-42
2023/08/18 02:15:35;;;;;;;;;;;;;;;29.17;31.86;100623.63;5038149;28;1242;-43
2023/08/18 02:18:01;;;;;;;;;;;;;;;29.16;31.99;100621.94;5055815;28;1059;-43
2023/08/18 02:20:26;;;;;;;;;;;;;;;29.15;31.90;100628.41;5056177;28;1140;-43
2023/08/18 02:22:52;;;;;;;;;;;;;;;29.14;32.03;100629.44;5055887;28;1025;-42
2023/08/18 02:25:18;;;;;;;;;;;;;;;29.18;31.60;100628.00;5055540;28;1983;-42
2023/08/18 02:27:43;;;;;;;;;;;;;;;29.16;31.75;100630.06;5055587;28;1192;-43
2023/08/18 02:30:09;;;;;;;;;;;;;;;29.07;31.94;100633.97;5037965;28;1652;-42
2023/08/18 02:32:35;;;;;;;;;;;;;;;29.07;31.95;100637.53;5055561;28;1106;-42
2023/08/18 02:35:01;;;;;;;;;;;;;;;29.19;31.80;100648.66;5037686;28;875;-42
2023/08/18 02:37:27;;;;;;;;;;;;;;;29.06;32.12;100652.09;5056125;28;1190;-42
2023/08/18 02:39:53;;;;;;;;;;;;;;;29.10;31.98;100644.41;5037876;28;1179;-43
2023/08/18 02:42:20;;;;;;;;;;;;;;;29.06;31.91;100645.84;5055842;28;1192;-43
2023/08/18 02:44:45;;;;;;;;;;;;;;;29.07;31.87;100652.94;5055877;28;1969;-43
2023/08/18 02:47:13;;;;;;;;;;;;;;;29.18;31.98;100655.09;5037259;28;1112;-43
2023/08/18 02:49:38;;;;;;;;;;;;;;;29.11;31.84;100651.53;5055380;28;1055;-42
2023/08/18 02:52:04;;;;;;;;;;;;;;;29.11;31.89;100654.22;5055662;28;1219;-42
2023/08/18 02:54:29;;;;;;;;;;;;;;;29.11;31.88;100661.50;5037857;28;1231;-42
2023/08/18 02:56:55;;;;;;;;;;;;;;;28.99;31.96;100662.06;5062256;28;1108;-42
2023/08/18 02:59:22;;;;;;;;;;;;;;;29.07;31.87;100661.91;5057191;28;1052;-42
2023/08/18 03:01:48;;;;;;;;;;;;;;;29.00;32.19;100668.28;5055701;28;1110;-42
2023/08/18 03:04:14;;;;;;;;;;;;;;;29.02;31.90;100668.94;5055621;28;1032;-43
2023/08/18 03:06:39;;;;;;;;;;;;;;;28.97;32.15;100669.53;5055397;28;1985;-42
2023/08/18 03:09:05;;;;;;;;;;;;;;;29.03;32.24;100673.34;5055729;28;1079;-42
2023/08/18 03:11:32;;;;;;;;;;;;;;;29.06;31.89;100676.47;5037260;28;1191;-42
2023/08/18 03:13:57;;;;;;;;;;;;;;;29.07;32.06;100680.88;5068992;28;1128;-43
2023/08/18 03:16:23;;;;;;;;;;;;;;;28.45;33.38;100680.53;5037280;28;1238;-43
2023/08/18 03:18:48;;;;;;;;;;;;;;;28.48;34.10;100686.41;5055422;28;1024;-42
2023/08/18 03:21:14;;;;;;;;;;;;;;;28.11;38.75;100686.41;5038739;28;1044;-42
2023/08/18 03:23:39;;;;;;;;;;;;;;;28.05;38.60;100684.50;5059060;28;909;-40
2023/08/18 03:26:05;;;;;;;;;;;;;;;28.27;38.73;100689.06;5058281;28;1975;-42
2023/08/18 03:28:32;;;;;;;;;;;;;;;28.28;39.19;100694.28;5041731;28;1103;-41
2023/08/18 03:30:58;;;;;;;;;;;;;;;28.05;39.41;100697.16;5041317;28;1262;-42
2023/08/18 03:33:25;;;;;;;;;;;;;;;28.20;41.29;100694.41;5041197;28;1122;-43
2023/08/18 03:35:51;;;;;;;;;;;;;;;28.06;40.14;100694.25;5058627;28;917;-41
2023/08/18 03:38:16;;;;;;;;;;;;;;;28.32;40.50;100697.44;5059001;28;1190;-41
2023/08/18 03:40:42;;;;;;;;;;;;;;;28.34;38.96;100701.66;5058853;28;1136;-39
2023/08/18 03:43:07;;;;;;;;;;;;;;;27.61;46.64;100699.75;5059049;28;1103;-42
2023/08/18 03:45:33;;;;;;;;;;;;;;;27.98;45.34;100705.19;5040359;28;1979;-42
2023/08/18 03:47:59;;;;;;;;;;;;;;;28.06;44.27;100702.38;5030915;28;1108;-42
2023/08/18 03:50:27;;;;;;;;;;;;;;;27.68;43.34;100702.50;5040726;28;1216;-43
2023/08/18 03:52:55;;;;;;;;;;;;;;;28.21;40.40;100710.44;5027802;28;1126;-45
2023/08/18 03:55:21;;;;;;;;;;;;;;;28.63;39.92;100709.03;5040703;28;1368;-43
2023/08/18 03:57:46;;;;;;;;;;;;;;;28.76;40.38;100717.22;5040362;28;1255;-42
2023/08/18 04:00:12;;;;;;;;;;;;;;;29.25;40.92;100714.72;5040522;28;1148;-42
2023/08/18 04:02:42;;;;;;;;;;;;;;;27.31;48.17;100719.47;5071381;28;1277;-43
2023/08/18 04:05:12;;;;;;;;;;;;;;;25.68;51.59;100715.69;5044568;28;1906;-41
2023/08/18 04:07:38;;;;;;;;;;;;;;;25.13;53.98;100716.28;5053948;28;1236;-43
2023/08/18 04:10:04;;;;;;;;;;;;;;;23.10;59.12;100707.91;5074885;28;1114;-43
2023/08/18 04:12:29;;;;;;;;;;;;;;;22.36;59.67;100704.41;5040385;28;1303;-40
2023/08/18 04:14:55;;;;;;;;;;;;;;;21.91;59.82;100706.06;5058211;28;1168;-42
2023/08/18 04:17:20;;;;;;;;;;;;;;;21.71;59.63;100706.13;5040088;28;1239;-41
2023/08/18 04:19:46;;;;;;;;;;;;;;;21.45;59.68;100709.47;5047340;28;1347;-37
2023/08/18 04:22:12;;;;;;;;;;;;;;;23.84;53.38;100712.84;5056414;28;1996;-36
2023/08/18 04:24:37;;;;;;;;;;;;;;;24.29;48.65;100715.38;5050701;28;1984;-42
2023/08/18 04:27:03;;;;;;;;;;;;;;;21.64;57.16;100710.38;5078160;28;1174;-43
2023/08/18 04:29:29;;;;;;;;;;;;;;;25.02;48.68;100716.63;5046358;28;1009;-42
2023/08/18 04:31:55;;;;;;;;;;;;;;;26.82;43.33;100723.47;5059401;28;1355;-42
2023/08/18 04:34:20;;;;;;;;;;;;;;;27.69;39.68;100718.59;5073471;28;1043;-43
2023/08/18 04:36:46;;;;;;;;;;;;;;;27.99;39.40;100720.41;5040091;28;1180;-39
2023/08/18 04:39:11;;;;;;;;;;;;;;;28.04;38.44;100728.78;5048747;28;1140;-43
2023/08/18 04:41:37;;;;;;;;;;;;;;;27.48;40.03;100720.13;5059854;28;1131;-42
2023/08/18 04:44:03;;;;;;;;;;;;;;;27.70;41.94;100717.56;5059727;28;1191;-41
2023/08/18 04:46:29;;;;;;;;;;;;;;;27.99;38.17;100723.13;5055105;28;1914;-44
2023/08/18 04:49:00;;;;;;;;;;;;;;;27.60;39.39;100727.78;5042289;28;1205;-44
2023/08/18 04:51:27;;;;;;;;;;;;;;;27.42;43.15;100726.28;5059480;28;1210;-43
2023/08/18 04:53:52;;;;;;;;;;;;;;;27.59;40.36;100723.41;5059353;28;1159;-44
2023/08/18 04:56:17;;;;;;;;;;;;;;;24.60;46.28;100722.00;5059645;28;1143;-43
2023/08/18 04:58:43;;;;;;;;;;;;;;;23.27;45.90;100716.91;5071897;28;1266;-43
2023/08/18 05:01:09;;;;;;;;;;;;;;;23.36;44.59;100717.78;5056805;28;1063;-43
2023/08/18 05:03:35;;;;;;;;;;;;;;;23.23;44.49;100715.53;5052207;28;1364;-42
2023/08/18 05:06:07;;;;;;;;;;;;;;;23.04;45.00;100712.03;5070449;28;1953;-44
2023/08/18 05:08:33;;;;;;;;;;;;;;;22.80;45.73;100712.69;5052568;28;1168;-43
2023/08/18 05:11:05;;;;;;;;;;;;;;;24.40;44.67;100716.94;5069786;28;1066;-41
2023/08/18 05:13:31;;;;;;;;;;;;;;;26.39;41.69;100714.81;5066040;28;1040;-41
2023/08/18 05:15:58;;;;;;;;;;;;;;;27.14;38.79;100724.22;5076913;28;1214;-41
2023/08/18 05:18:23;;;;;;;;;;;;;;;26.67;41.22;100731.50;5077506;28;1245;-42
2023/08/18 05:20:49;;;;;;;;;;;;;;;27.71;37.11;100727.31;5074246;28;1107;-42
2023/08/18 05:23:16;;;;;;;;;;;;;;;27.48;38.58;100730.09;5056604;28;1059;-41
2023/08/18 05:25:43;;;;;;;;;;;;;;;26.27;43.03;100732.41;5059012;28;1980;-41
2023/08/18 05:28:08;;;;;;;;;;;;;;;26.88;36.04;100736.22;5076889;28;1071;-40
2023/08/18 05:30:34;;;;;;;;;;;;;;;26.88;38.82;100741.63;5076118;28;1133;-41
2023/08/18 05:32:59;;;;;;;;;;;;;;;27.66;36.75;100732.41;5076665;28;1137;-42
2023/08/18 05:35:25;;;;;;;;;;;;;;;27.59;37.88;100736.91;5067019;28;1082;-41
2023/08/18 05:37:51;;;;;;;;;;;;;;;27.17;41.53;100742.75;5064950;28;1143;-41
2023/08/18 05:40:16;;;;;;;;;;;;;;;27.73;37.81;100733.41;5076723;28;1070;-35
2023/08/18 05:42:42;;;;;;;;;;;;;;;27.47;39.77;100741.94;5076505;28;1186;-42
2023/08/18 05:45:09;;;;;;;;;;;;;;;28.03;38.41;100735.22;5076645;28;1914;-42
2023/08/18 05:47:34;;;;;;;;;;;;;;;27.44;38.65;100736.91;5067055;28;844;-41
2023/08/18 05:50:00;;;;;;;;;;;;;;;26.74;43.73;100729.78;5071565;28;1099;-39
2023/08/18 05:52:25;;;;;;;;;;;;;;;27.52;38.42;100736.81;5076497;28;1043;-42
2023/08/18 05:54:51;;;;;;;;;;;;;;;27.12;39.81;100737.06;5062392;28;1087;-43
2023/08/18 05:57:16;;;;;;;;;;;;;;;27.47;41.64;100731.97;5076067;28;1139;-41
2023/08/18 05:59:41;;;;;;;;;;;;;;;27.42;39.33;100738.94;5066749;28;1074;-43
2023/08/18 06:02:07;;;;;;;;;;;;;;;27.22;41.91;100726.84;5055727;28;1231;-37
2023/08/18 06:04:32;;;;;;;;;;;;;;;28.13;38.29;100728.69;5065812;28;1960;-43
2023/08/18 06:06:59;;;;;;;;;;;;;;;27.85;39.70;100722.94;5076281;28;1075;-42
2023/08/18 06:09:25;;;;;;;;;;;;;;;27.97;41.53;100727.88;5076361;28;1087;-41
2023/08/18 06:11:50;;;;;;;;;;;;;;;28.23;38.86;100727.31;5065563;28;1114;-43
2023/08/18 06:14:16;;;;;;;;;;;;;;;27.94;40.91;100737.19;5064512;28;1175;-43
2023/08/18 06:16:41;;;;;;;;;;;;;;;28.66;37.70;100741.94;5075362;28;1183;-40
2023/08/18 06:19:08;;;;;;;;;;;;;;;28.40;39.06;100740.66;5076099;28;1529;-40
2023/08/18 06:21:33;;;;;;;;;;;;;;;28.05;41.79;100743.13;5075508;28;1123;-43
2023/08/18 06:23:59;;;;;;;;;;;;;;;28.66;38.03;100749.22;5064861;28;845;-42
2023/08/18 06:26:24;;;;;;;;;;;;;;;28.22;39.71;100741.91;5071184;28;1997;-43
2023/08/18 06:28:50;;;;;;;;;;;;;;;28.49;36.51;100738.66;5075820;28;1106;-38
2023/08/18 06:31:15;;;;;;;;;;;;;;;28.07;38.16;100736.53;5075232;28;1126;-41
2023/08/18 06:33:41;;;;;;;;;;;;;;;27.67;42.06;100742.22;5076152;28;1234;-42
2023/08/18 06:36:06;;;;;;;;;;;;;;;28.55;38.02;100745.16;5064885;28;1051;-42
2023/08/18 06:38:32;;;;;;;;;;;;;;;28.23;39.68;100746.25;5051066;28;1285;-41
2023/08/18 06:40:58;;;;;;;;;;;;;;;28.66;39.88;100739.22;5076086;28;1042;-42
2023/08/18 06:43:23;;;;;;;;;;;;;;;28.47;38.34;100749.69;5075588;28;1043;-42
2023/08/18 06:45:49;;;;;;;;;;;;;;;28.20;41.24;100743.94;5075487;28;1914;-42
2023/08/18 06:48:14;;;;;;;;;;;;;;;28.60;36.70;100748.13;5064648;28;1158;-43
2023/08/18 06:50:40;;;;;;;;;;;;;;;28.43;38.36;100742.97;5068163;28;1258;-41
2023/08/18 06:53:05;;;;;;;;;;;;;;;28.72;39.72;100745.75;5059998;28;1379;-42
2023/08/18 06:55:31;;;;;;;;;;;;;;;27.97;36.86;100749.50;5051584;28;1841;-37
2023/08/18 06:57:57;;;;;;;;;;;;;;;28.22;39.71;100743.75;5069549;28;2213;-40
2023/08/18 07:00:22;;;;;;;;;;;;;;;28.26;37.89;100746.91;5072669;28;2097;-43
2023/08/18 07:02:49;;;;;;;;;;;;;;;27.86;38.01;100737.31;5058565;28;1834;-42
2023/08/18 07:05:16;;;;;;;;;;;;;;;27.27;40.38;100745.19;5058711;28;1993;-42
2023/08/18 07:07:41;;;;;;;;;;;;;;;27.35;36.16;100746.97;5063366;28;1859;-42
2023/08/18 07:10:07;;;;;;;;;;;;;;;27.69;37.11;100740.22;5062416;28;2234;-43
2023/08/18 07:12:33;;;;;;;;;;;;;;;28.34;37.20;100744.13;5064997;28;1202;-36
2023/08/18 07:14:58;;;;;;;;;;;;;;;28.34;36.92;100738.72;5058940;28;1187;-36
2023/08/18 07:17:24;;;;;;;;;;;;;;;27.98;39.30;100726.81;5060542;28;1135;-37
2023/08/18 07:19:49;;;;;;;;;;;;;;;28.60;35.88;100738.16;5058149;28;2010;-34
2023/08/18 07:22:15;;;;;;;;;;;;;;;28.55;36.88;100753.28;5058551;28;1835;-35
2023/08/18 07:24:40;;;;;;;;;;;;;;;28.96;35.09;100762.63;5057891;28;1981;-34
2023/08/18 07:27:06;;;;;;;;;;;;;;;28.79;37.45;100760.19;5058289;28;1893;-33
2023/08/18 07:29:33;;;;;;;;;;;;;;;28.40;39.07;100764.16;5058106;28;1912;-36
2023/08/18 07:31:59;;;;;;;;;;;;;;;28.93;36.10;100754.84;5062689;28;2091;-35
2023/08/18 07:34:25;;;;;;;;;;;;;;;28.72;36.53;100759.28;5056327;28;1082;-38
2023/08/18 07:36:51;;;;;;;;;;;;;;;28.81;38.43;100752.69;5057164;28;1901;-35
2023/08/18 07:39:16;;;;;;;;;;;;;;;27.67;39.97;100753.03;5058889;28;1092;-36
2023/08/18 07:41:42;;;;;;;;;;;;;;;27.58;39.66;100754.97;5075956;28;1056;-33
2023/08/18 07:44:07;;;;;;;;;;;;;;;28.68;38.82;100764.22;5067047;28;1062;-36
2023/08/18 07:46:33;;;;;;;;;;;;;;;27.17;44.66;100753.56;5058352;28;1902;-33
2023/08/18 07:48:59;;;;;;;;;;;;;;;28.39;38.13;100760.63;5068954;28;877;-32
2023/08/18 07:51:24;;;;;;;;;;;;;;;27.49;41.54;100750.69;5073507;28;1269;-40
2023/08/18 07:53:51;;;;;;;;;;;;;;;28.13;39.30;100755.72;5070638;28;1035;-42
2023/08/18 07:56:16;;;;;;;;;;;;;;;28.14;40.13;100768.22;5061830;28;1088;-41
2023/08/18 07:58:41;;;;;;;;;;;;;;;27.55;41.23;100766.16;5066761;28;1127;-41
2023/08/18 08:01:07;;;;;;;;;;;;;;;28.79;38.71;100768.31;5057345;28;1171;-44
2023/08/18 08:03:32;;;;;;;;;;;;;;;27.23;44.76;100765.47;5057586;28;1124;-37
2023/08/18 08:05:58;;;;;;;;;;;;;;;28.53;39.36;100775.13;5049786;28;2607;-38
2023/08/18 08:08:23;;;;;;;;;;;;;;;27.59;41.69;100772.03;5056421;28;1093;-39
2023/08/18 08:10:49;;;;;;;;;;;;;;;27.73;41.91;100770.38;5057780;28;1056;-36
2023/08/18 08:13:15;;;;;;;;;;;;;;;28.44;40.34;100769.00;5057514;28;909;-37
2023/08/18 08:15:45;;;;;;;;;;;;;;;27.20;45.53;100768.53;5057496;28;1253;-36
2023/08/18 08:18:13;;;;;;;;;;;;;;;28.90;38.96;100775.06;5069701;28;1116;-36
2023/08/18 08:20:39;;;;;;;;;;;;;;;27.36;42.28;100783.75;5058415;28;1030;-35
2023/08/18 08:23:05;;;;;;;;;;;;;;;27.97;41.43;100779.22;5062858;28;1028;-35
2023/08/18 08:25:30;;;;;;;;;;;;;;;28.60;39.67;100786.84;5074488;28;1972;-34
2023/08/18 08:27:56;;;;;;;;;;;;;;;27.26;44.48;100782.16;5062107;28;1238;-37
2023/08/18 08:30:21;;;;;;;;;;;;;;;28.55;38.60;100783.03;5077384;28;1094;-37
2023/08/18 08:32:47;;;;;;;;;;;;;;;27.45;41.71;100777.25;5077404;28;1147;-35
2023/08/18 08:35:12;;;;;;;;;;;;;;;27.96;40.36;100769.47;5074945;28;1852;-37
2023/08/18 08:37:41;;;;;;;;;;;;;;;27.99;40.36;100775.31;5072608;28;920;-36
2023/08/18 08:40:10;;;;;;;;;;;;;;;27.31;42.23;100775.38;5077399;28;1273;-36
2023/08/18 08:42:35;;;;;;;;;;;;;;;28.41;39.32;100768.53;5077236;28;1067;-36
2023/08/18 08:45:01;;;;;;;;;;;;;;;26.98;42.03;100765.66;5077226;28;2223;-37
2023/08/18 08:47:26;;;;;;;;;;;;;;;27.81;40.43;100774.88;5077131;28;1205;-36
2023/08/18 08:49:54;;;;;;;;;;;;;;;27.76;40.79;100764.59;5059426;28;1309;-36
2023/08/18 08:52:19;;;;;;;;;;;;;;;26.58;45.20;100761.25;5069366;28;1350;-36
2023/08/18 08:54:50;;;;;;;;;;;;;;;28.26;39.67;100760.44;5058885;28;1316;-37
2023/08/18 08:57:16;;;;;;;;;;;;;;;26.98;41.83;100768.34;5062428;28;1808;-33
2023/08/18 08:59:42;;;;;;;;;;;;;;;27.71;40.04;100754.34;5076307;28;1353;-37
2023/08/18 09:02:07;;;;;;;;;;;;;;;27.97;39.54;100758.44;5059461;28;1475;-36
2023/08/18 09:04:33;;;;;;;;;;;;;;;26.54;44.42;100754.53;5046959;28;1985;-39
2023/08/18 09:06:58;;;;;;;;;;;;;;;28.01;40.01;100756.19;5062779;28;1316;-40
2023/08/18 09:09:24;;;;;;;;;;;;;;;27.17;42.10;100748.16;5058958;28;1128;-39
2023/08/18 09:11:49;;;;;;;;;;;;;;;26.77;45.29;100749.16;5039272;28;1088;-36
2023/08/18 09:14:15;;;;;;;;;;;;;;;28.64;39.46;100760.25;5055968;28;886;-37
2023/08/18 09:16:42;;;;;;;;;;;;;;;26.78;43.08;100758.91;5064990;28;1427;-38
2023/08/18 09:19:10;;;;;;;;;;;;;;;27.97;41.83;100757.59;5067308;28;1142;-36
2023/08/18 09:21:36;;;;;;;;;;;;;;;28.13;41.06;100753.03;5058298;28;1408;-36
2023/08/18 09:24:01;;;;;;;;;;;;;;;26.43;44.60;100744.13;5067227;28;1059;-37
2023/08/18 09:26:27;;;;;;;;;;;;;;;27.40;44.13;100747.25;5056339;28;1910;-37
2023/08/18 09:28:52;;;;;;;;;;;;;;;28.54;41.33;100752.47;5065777;28;1210;-37
2023/08/18 09:31:19;;;;;;;;;;;;;;;26.51;44.93;100744.06;5062892;28;1095;-36
2023/08/18 09:33:44;;;;;;;;;;;;;;;27.29;44.76;100742.31;5072002;28;1420;-35
2023/08/18 09:36:13;;;;;;;;;;;;;;;28.92;40.49;100748.63;5044093;28;2422;-38
2023/08/18 09:38:41;;;;;;;;;;;;;;;26.60;44.75;100744.88;5056273;28;880;-38
2023/08/18 09:41:10;;;;;;;;;;;;;;;28.17;42.61;100749.75;5074536;28;1107;-37
2023/08/18 09:43:36;;;;;;;;;;;;;;;27.94;42.67;100739.91;5076283;28;1088;-35
2023/08/18 09:46:06;;;;;;;;;;;;;;;26.62;48.35;100743.69;5058937;28;1914;-35
2023/08/18 09:48:40;;;;;;;;;;;;;;;28.70;42.12;100747.78;5071158;28;1120;-38
2023/08/18 09:51:06;;;;;;;;;;;;;;;27.21;43.98;100732.44;5055586;28;1140;-35
2023/08/18 09:53:31;;;;;;;;;;;;;;;26.14;45.47;100733.00;5041765;28;1151;-38
2023/08/18 09:56:03;;;;;;;;;;;;;;;28.06;41.78;100744.81;5075258;28;1281;-37
2023/08/18 09:58:40;;;;;;;;;;;;;;;27.70;42.19;100746.44;5044907;28;1155;-34
2023/08/18 10:01:06;;;;;;;;;;;;;;;26.72;47.19;100740.75;5069587;28;1261;-42
2023/08/18 10:03:32;;;;;;;;;;;;;;;28.68;39.97;100755.25;5061342;28;1151;-43
2023/08/18 10:05:57;;;;;;;;;;;;;;;27.28;42.48;100756.84;5073532;28;2695;-43
2023/08/18 10:08:23;;;;;;;;;;;;;;;26.60;46.89;100752.97;5057559;28;1207;-43
2023/08/18 10:10:49;;;;;;;;;;;;;;;28.59;40.12;100752.69;5061713;28;1234;-43
2023/08/18 10:13:15;;;;;;;;;;;;;;;27.33;42.15;100747.13;5068685;28;1359;-42
2023/08/18 10:15:40;;;;;;;;;;;;;;;26.79;46.41;100732.78;5069897;28;1111;-42
2023/08/18 10:18:09;;;;;;;;;;;;;;;28.62;36.28;100731.69;5057611;28;1080;-43
2023/08/18 10:20:35;;;;;;;;;;;;;;;27.38;40.50;100738.47;5059257;28;1103;-41
2023/08/18 10:23:01;;;;;;;;;;;;;;;28.10;37.57;100743.41;5068649;28;1313;-43
2023/08/18 10:25:29;;;;;;;;;;;;;;;28.55;37.03;100761.38;5068212;28;1901;-43
2023/08/18 10:27:54;;;;;;;;;;;;;;;26.67;41.12;100763.88;5051616;28;1028;-42
2023/08/18 10:30:20;;;;;;;;;;;;;;;28.05;38.02;100762.06;5074644;28;1068;-43
2023/08/18 10:32:45;;;;;;;;;;;;;;;27.96;38.76;100762.16;5061663;28;1142;-43
2023/08/18 10:35:20;;;;;;;;;;;;;;;26.80;42.64;100772.22;5069304;28;2397;-43
2023/08/18 10:38:15;;;;;;;;;;;;;;;28.87;37.45;100777.31;5063720;28;1103;-44
2023/08/18 10:40:41;;;;;;;;;;;;;;;27.34;40.49;100772.31;5056841;28;1280;-43
2023/08/18 10:43:07;;;;;;;;;;;;;;;27.36;41.17;100776.47;5067112;28;1003;-42
2023/08/18 10:45:33;;;;;;;;;;;;;;;28.96;37.13;100768.03;5068797;28;1906;-39
2023/08/18 10:47:59;;;;;;;;;;;;;;;26.96;41.69;100756.94;5055398;28;1008;-43
2023/08/18 10:50:28;;;;;;;;;;;;;;;27.05;44.45;100768.50;5038507;28;1226;-43
2023/08/18 10:52:56;;;;;;;;;;;;;;;29.04;37.44;100762.50;5064349;28;1152;-43
2023/08/18 10:55:22;;;;;;;;;;;;;;;27.16;41.23;100768.06;5074759;28;1039;-43
2023/08/18 10:57:48;;;;;;;;;;;;;;;27.34;41.81;100766.91;5057580;28;1244;-42
2023/08/18 11:00:15;;;;;;;;;;;;;;;28.96;38.32;100768.03;5075008;28;1099;-38
2023/08/18 11:02:41;;;;;;;;;;;;;;;26.93;41.57;100759.97;5060136;28;899;-43
2023/08/18 11:05:07;;;;;;;;;;;;;;;27.78;40.46;100759.84;5071322;28;2495;-41
2023/08/18 11:07:33;;;;;;;;;;;;;;;28.87;38.63;100767.31;5075119;28;1098;-43
2023/08/18 11:09:58;;;;;;;;;;;;;;;26.96;41.64;100770.41;5074792;28;1158;-41
2023/08/18 11:12:24;;;;;;;;;;;;;;;27.93;40.27;100761.69;5074967;28;1297;-43
2023/08/18 11:14:49;;;;;;;;;;;;;;;28.84;39.06;100773.13;5070454;28;1320;-43
2023/08/18 11:17:15;;;;;;;;;;;;;;;26.92;42.64;100766.38;5058083;28;1261;-45
2023/08/18 11:19:40;;;;;;;;;;;;;;;28.53;39.83;100758.88;5054005;28;1376;-43
2023/08/18 11:22:06;;;;;;;;;;;;;;;28.06;40.24;100771.88;5056372;28;1418;-43
2023/08/18 11:24:32;;;;;;;;;;;;;;;26.82;44.97;100759.38;5063766;28;1180;-43
2023/08/18 11:26:58;;;;;;;;;;;;;;;28.75;38.87;100758.03;5046320;28;1910;-42
2023/08/18 11:29:25;;;;;;;;;;;;;;;27.56;41.23;100767.84;5061237;28;1363;-43
2023/08/18 11:31:51;;;;;;;;;;;;;;;27.05;45.58;100755.84;5043688;28;1048;-44
2023/08/18 11:34:16;;;;;;;;;;;;;;;28.84;38.43;100767.72;5068471;28;1024;-41
2023/08/18 11:36:43;;;;;;;;;;;;;;;27.29;41.94;100763.91;5038287;28;2512;-16
2023/08/18 11:39:09;;;;;;;;;;;;;;;26.83;46.62;100766.47;5038821;28;1175;-16
2023/08/18 11:41:38;;;;;;;;;;;;;;;29.01;39.45;100768.28;5048428;28;1352;-16
2023/08/18 11:44:04;;;;;;;;;;;;;;;27.28;42.37;100767.63;5070826;28;1096;-16
2023/08/18 11:46:30;;;;;;;;;;;;;;;27.22;45.57;100766.50;5057879;28;1902;-16
2023/08/18 11:48:58;;;;;;;;;;;;;;;29.03;38.46;100762.72;5061153;28;1290;-16
2023/08/18 11:51:23;;;;;;;;;;;;;;;27.31;42.15;100765.38;5060196;28;938;-16
2023/08/18 11:53:49;;;;;;;;;;;;;;;28.06;40.15;100753.75;5074631;28;1160;-16
2023/08/18 11:56:14;;;;;;;;;;;;;;;28.56;39.64;100755.78;5078017;28;1020;-16
2023/08/18 11:58:40;;;;;;;;;;;;;;;26.83;44.58;100755.66;5077122;28;1149;-16
2023/08/18 12:01:05;;;;;;;;;;;;;;;28.64;40.73;100760.25;5076767;28;1151;-42
2023/08/18 12:03:31;;;;;;;;;;;;;;;28.04;41.42;100749.56;5065584;28;1496;-41
2023/08/18 12:05:57;;;;;;;;;;;;;;;26.84;43.48;100743.84;5065336;28;1917;-43
2023/08/18 12:08:23;;;;;;;;;;;;;;;28.19;40.80;100749.53;5056082;28;1144;-44
2023/08/18 12:10:49;;;;;;;;;;;;;;;28.12;41.67;100757.56;5065217;28;1664;-44
2023/08/18 12:13:15;;;;;;;;;;;;;;;26.67;44.37;100745.00;5064788;28;1160;-35
2023/08/18 12:15:41;;;;;;;;;;;;;;;27.97;42.63;100746.78;5072560;28;1048;-42
2023/08/18 12:18:06;;;;;;;;;;;;;;;28.57;40.75;100730.41;5072083;28;1297;-41
2023/08/18 12:20:32;;;;;;;;;;;;;;;26.72;44.16;100726.41;5072242;28;1419;-42
2023/08/18 12:22:58;;;;;;;;;;;;;;;28.36;42.13;100733.97;5067726;28;1106;-41
2023/08/18 12:25:24;;;;;;;;;;;;;;;28.02;42.00;100730.84;5077128;28;1975;-43
2023/08/18 12:27:49;;;;;;;;;;;;;;;26.64;44.66;100728.13;5060988;28;942;-42
2023/08/18 12:30:15;;;;;;;;;;;;;;;28.43;41.66;100734.84;5063556;28;1186;-42
2023/08/18 12:32:41;;;;;;;;;;;;;;;28.36;41.87;100739.38;5077095;28;1261;-41
2023/08/18 12:35:07;;;;;;;;;;;;;;;26.81;44.58;100729.88;5046137;28;1844;-43
2023/08/18 12:37:33;;;;;;;;;;;;;;;28.10;42.82;100732.59;5070101;28;1226;-44
2023/08/18 12:39:58;;;;;;;;;;;;;;;28.38;42.15;100731.06;5057656;28;1090;-43
2023/08/18 12:42:24;;;;;;;;;;;;;;;26.94;44.34;100732.81;5058547;28;1506;-36